Time;durP1;ratioP1;P1;durP2;ratioP2;P2;SDS_P1;SDS_P2;PMS_P1;PMS_P2;Temp;Humidity;BMP_temperature;BMP_pressure;BME280_temperature;BME280_humidity;BME280_pressure;Samples;Min_cycle;Max_cycle;Signal;HPM_P1;HPM_P2
2023/10/23 01:57:53;;;;;;;;;;;;;;;8.87;79.23;99702.47;1088118;47;869;-81
2023/10/23 06:19:25;;;;;;;;;;;;;;;7.46;78.74;99714.13;1088500;47;978;-81
2023/10/23 06:20:54;;;;;;;;;;;;;;;7.31;78.91;99718.94;1088461;47;1852;-81
2023/10/23 12:56:40;;;;;;;;;;;;;;;14.55;65.29;99313.56;1088318;54;1842;-81
2023/10/23 13:09:08;;;;;;;;;;;;;;;14.74;64.70;99290.63;1088268;54;1934;-82
2023/10/23 15:10:23;;;;;;;;;;;;;;;14.40;68.45;99060.03;1088651;54;1911;-84
2023/10/23 15:11:29;;;;;;;;;;;;;;;14.44;68.89;99056.75;1089027;47;879;-83
2023/10/23 16:10:38;;;;;;;;;;;;;;;14.42;68.00;98962.00;1088727;54;1940;-82
2023/10/23 16:13:05;;;;;;;;;;;;;;;14.45;68.14;98953.53;1088707;54;1890;-84
2023/10/23 16:14:06;;;;;;;;;;;;;;;14.42;68.18;98953.09;1088511;47;1012;-80
2023/10/23 16:15:20;;;;;;;;;;;;;;;14.39;68.10;98957.00;1088743;46;923;-84
2023/10/23 16:16:21;;;;;;;;;;;;;;;14.38;68.12;98963.41;1088818;54;1306;-82
2023/10/23 16:17:22;;;;;;;;;;;;;;;14.30;68.46;98960.88;1088713;54;1071;-83
2023/10/23 16:19:56;;;;;;;;;;;;;;;14.40;68.37;98966.75;1088975;46;855;-81
2023/10/23 16:22:28;;;;;;;;;;;;;;;14.35;68.00;98966.50;1088782;54;934;-83
2023/10/23 16:23:29;;;;;;;;;;;;;;;14.39;68.08;98969.63;1088420;47;1139;-81
2023/10/23 16:24:33;;;;;;;;;;;;;;;14.34;68.24;98964.84;1088552;46;1098;-82
2023/10/23 16:25:44;;;;;;;;;;;;;;;14.32;68.40;98967.72;1088572;54;924;-82
2023/10/23 16:26:48;;;;;;;;;;;;;;;14.25;68.02;98963.34;1088518;54;1202;-82
2023/10/23 16:27:52;;;;;;;;;;;;;;;14.34;67.91;98962.16;1088457;54;878;-82
2023/10/23 16:29:07;;;;;;;;;;;;;;;14.37;68.19;98956.38;1088546;54;1141;-83
2023/10/23 16:30:10;;;;;;;;;;;;;;;14.45;67.68;98958.91;1088673;54;977;-83
2023/10/23 16:31:18;;;;;;;;;;;;;;;14.44;67.81;98951.91;1088599;47;930;-83
2023/10/23 16:32:28;;;;;;;;;;;;;;;14.48;67.41;98955.00;1088541;54;1050;-82
2023/10/23 16:33:31;;;;;;;;;;;;;;;14.46;67.48;98957.06;1088597;54;933;-84
2023/10/23 16:34:32;;;;;;;;;;;;;;;14.46;67.59;98954.38;1088417;54;1009;-81
2023/10/23 16:35:36;;;;;;;;;;;;;;;14.43;67.89;98958.28;1088445;54;1032;-80
2023/10/23 16:36:37;;;;;;;;;;;;;;;14.45;67.66;98958.91;1088316;54;1424;-82
2023/10/23 16:37:40;;;;;;;;;;;;;;;14.44;67.61;98957.28;1088515;54;1408;-83
2023/10/23 16:38:50;;;;;;;;;;;;;;;14.39;68.26;98959.69;1088520;54;1417;-83
2023/10/23 16:39:53;;;;;;;;;;;;;;;14.27;68.21;98958.56;1088428;54;1060;-84
2023/10/23 16:40:56;;;;;;;;;;;;;;;14.25;68.41;98957.97;1088642;54;1055;-82
2023/10/23 16:42:09;;;;;;;;;;;;;;;14.32;68.37;98953.44;1088617;54;1128;-82
2023/10/23 16:43:13;;;;;;;;;;;;;;;14.39;67.91;98958.88;1088613;54;949;-83
2023/10/23 16:44:25;;;;;;;;;;;;;;;14.40;67.86;98966.75;1088581;54;1054;-84
2023/10/23 16:45:30;;;;;;;;;;;;;;;14.43;67.59;98970.88;1088680;54;1173;-83
2023/10/23 16:46:34;;;;;;;;;;;;;;;14.43;67.60;98969.06;1088913;54;1439;-82
2023/10/23 16:47:38;;;;;;;;;;;;;;;14.41;67.54;98971.09;1088940;54;991;-84
2023/10/23 16:48:42;;;;;;;;;;;;;;;14.45;67.72;98974.22;1088979;54;953;-84
2023/10/23 16:49:56;;;;;;;;;;;;;;;14.48;67.68;98979.22;1088945;54;1008;-82
2023/10/23 16:51:00;;;;;;;;;;;;;;;14.53;67.52;98978.63;1088914;54;1024;-83
2023/10/23 16:52:03;;;;;;;;;;;;;;;14.56;67.48;98975.53;1088838;54;1170;-84
2023/10/23 16:53:12;;;;;;;;;;;;;;;14.56;67.64;98978.22;1088513;54;1848;-83
2023/10/23 16:54:13;;;;;;;;;;;;;;;14.58;67.50;98981.53;1088646;46;1138;-84
2023/10/23 16:55:27;;;;;;;;;;;;;;;14.61;67.57;98983.84;1088502;54;1000;-82
2023/10/23 16:56:28;;;;;;;;;;;;;;;14.63;67.34;98973.72;1088481;47;1295;-81
2023/10/23 16:57:29;;;;;;;;;;;;;;;14.65;67.59;98977.03;1088512;54;1130;-81
2023/10/23 16:58:32;;;;;;;;;;;;;;;14.66;67.57;98981.38;1088489;47;896;-82
2023/10/23 16:59:33;;;;;;;;;;;;;;;14.63;67.93;98971.84;1088558;54;1146;-84
2023/10/23 17:00:40;;;;;;;;;;;;;;;14.64;67.99;98978.91;1088563;47;947;-82
2023/10/23 17:01:48;;;;;;;;;;;;;;;14.65;68.29;98979.72;1088528;54;1028;-82
2023/10/23 17:02:52;;;;;;;;;;;;;;;14.63;68.22;98971.03;1088547;47;924;-83
2023/10/23 17:03:54;;;;;;;;;;;;;;;14.63;68.38;98981.81;1088535;47;878;-82
2023/10/23 17:04:58;;;;;;;;;;;;;;;14.62;68.02;98980.94;1088341;54;891;-82
2023/10/23 17:06:00;;;;;;;;;;;;;;;14.65;68.01;98987.78;1088289;46;973;-81
2023/10/23 17:07:09;;;;;;;;;;;;;;;14.65;67.68;98985.09;1088423;54;1381;-81
2023/10/23 17:08:13;;;;;;;;;;;;;;;14.62;67.87;98990.91;1088542;54;930;-81
2023/10/23 17:09:15;;;;;;;;;;;;;;;14.63;67.97;98990.69;1088513;46;970;-82
2023/10/23 17:10:19;;;;;;;;;;;;;;;14.57;68.02;98990.63;1088468;54;1056;-82
2023/10/23 17:11:21;;;;;;;;;;;;;;;14.47;67.65;98999.06;1087831;47;1149;-83
2023/10/23 17:12:22;;;;;;;;;;;;;;;14.48;67.64;99000.72;1088489;54;974;-83
2023/10/23 17:13:26;;;;;;;;;;;;;;;14.49;67.82;99005.91;1088641;47;1943;-82
2023/10/23 17:14:28;;;;;;;;;;;;;;;14.49;67.67;98997.84;1088535;46;952;-81
2023/10/23 17:15:31;;;;;;;;;;;;;;;14.51;67.66;98992.25;1088229;54;1122;-81
2023/10/23 17:16:38;;;;;;;;;;;;;;;14.42;67.86;98985.34;1088231;54;1342;-82
2023/10/23 17:17:42;;;;;;;;;;;;;;;14.40;68.12;98996.31;1088361;54;946;-80
2023/10/23 17:18:43;;;;;;;;;;;;;;;14.38;68.20;98990.28;1088475;54;1040;-81
2023/10/23 17:19:48;;;;;;;;;;;;;;;14.35;68.06;98996.09;1088328;47;942;-83
2023/10/23 17:20:49;;;;;;;;;;;;;;;14.32;68.41;98997.28;1088341;54;915;-83
2023/10/23 17:21:53;;;;;;;;;;;;;;;14.35;68.24;98991.53;1088533;46;1000;-82
2023/10/23 17:22:54;;;;;;;;;;;;;;;14.37;68.15;98991.31;1088341;47;979;-81
2023/10/23 17:23:58;;;;;;;;;;;;;;;14.44;68.28;98996.75;1088288;54;1032;-80
2023/10/23 17:25:00;;;;;;;;;;;;;;;14.49;68.08;98999.72;1088400;54;1003;-81
2023/10/23 17:26:03;;;;;;;;;;;;;;;14.54;68.00;98994.56;1088407;54;1141;-82
2023/10/23 17:27:04;;;;;;;;;;;;;;;14.55;67.61;98992.72;1088193;54;1072;-82
2023/10/23 17:28:08;;;;;;;;;;;;;;;14.56;67.68;98994.34;1088413;54;923;-81
2023/10/23 17:29:09;;;;;;;;;;;;;;;14.57;67.66;98996.00;1088713;46;936;-82
2023/10/23 17:30:14;;;;;;;;;;;;;;;14.58;67.97;98995.00;1088465;54;940;-82
2023/10/23 17:31:16;;;;;;;;;;;;;;;14.56;68.13;98991.66;1088488;54;1033;-80
2023/10/23 17:32:22;;;;;;;;;;;;;;;14.50;68.02;98994.13;1088446;54;1095;-83
2023/10/23 17:33:38;;;;;;;;;;;;;;;14.50;68.09;98998.66;1088434;54;1852;-80
2023/10/23 17:34:42;;;;;;;;;;;;;;;14.52;68.15;99001.97;1088486;47;963;-82
2023/10/23 17:35:57;;;;;;;;;;;;;;;14.55;68.03;99000.78;1088481;47;1036;-81
2023/10/23 17:37:00;;;;;;;;;;;;;;;14.48;68.12;98992.66;1088506;46;1256;-83
2023/10/23 17:38:02;;;;;;;;;;;;;;;14.44;68.18;98994.91;1088378;54;968;-80
2023/10/23 17:39:09;;;;;;;;;;;;;;;14.38;68.28;98990.28;1088385;47;1163;-81
2023/10/23 17:40:11;;;;;;;;;;;;;;;14.34;68.82;98989.03;1088246;47;947;-81
2023/10/23 17:41:17;;;;;;;;;;;;;;;14.35;68.56;98985.34;1088565;54;917;-82
2023/10/23 17:42:18;;;;;;;;;;;;;;;14.28;69.07;98981.75;1088469;54;1022;-81
